Time;durP1;ratioP1;P1;durP2;ratioP2;P2;SDS_P1;SDS_P2;PMS_P1;PMS_P2;Temp;Humidity;BMP_temperature;BMP_pressure;BME280_temperature;BME280_humidity;BME280_pressure;Samples;Min_cycle;Max_cycle;Signal;HPM_P1;HPM_P2
2023/07/25 00:01:40;;;;;;;22.65;13.68;;;;;;;;;;4863422;29;20488;-87
2023/07/25 00:04:26;;;;;;;23.92;13.50;;;;;;;;;;4863306;29;20058;-84
2023/07/25 00:07:11;;;;;;;17.33;12.35;;;;;;;;;;4864967;29;20045;-85
2023/07/25 00:09:58;;;;;;;21.52;12.05;;;;;;;;;;4863748;29;20057;-87
2023/07/25 00:12:43;;;;;;;17.80;10.90;;;;;;;;;;4849328;29;20049;-86
2023/07/25 00:15:29;;;;;;;20.67;11.60;;;;;;;;;;4849269;29;20061;-86
2023/07/25 00:18:14;;;;;;;23.75;12.35;;;;;;;;;;4862799;29;20480;-86
2023/07/25 00:21:00;;;;;;;18.88;11.20;;;;;;;;;;4878781;29;20037;-84
2023/07/25 00:23:46;;;;;;;16.75;10.85;;;;;;;;;;4873426;29;20407;-86
2023/07/25 00:26:31;;;;;;;18.88;11.15;;;;;;;;;;4867705;29;20057;-86
2023/07/25 00:29:17;;;;;;;19.27;11.25;;;;;;;;;;4862501;29;20050;-86
2023/07/25 00:32:02;;;;;;;19.10;10.93;;;;;;;;;;4855083;29;20049;-86
2023/07/25 00:34:51;;;;;;;17.13;10.90;;;;;;;;;;4854197;29;20047;-86
2023/07/25 00:37:36;;;;;;;19.83;11.13;;;;;;;;;;4862742;29;20045;-86
2023/07/25 00:40:22;;;;;;;18.58;11.27;;;;;;;;;;4868156;29;20488;-86
2023/07/25 00:43:07;;;;;;;22.02;11.68;;;;;;;;;;4854579;29;20049;-86
2023/07/25 00:45:52;;;;;;;19.00;12.38;;;;;;;;;;4854806;29;20053;-86
2023/07/25 00:48:38;;;;;;;18.60;11.20;;;;;;;;;;4867480;29;20046;-86
2023/07/25 00:51:23;;;;;;;17.30;10.88;;;;;;;;;;4854709;29;20046;-86
2023/07/25 00:54:09;;;;;;;19.23;11.07;;;;;;;;;;4862122;29;20049;-86
2023/07/25 00:56:54;;;;;;;18.98;11.57;;;;;;;;;;4854650;29;20049;-86
2023/07/25 00:59:40;;;;;;;23.05;11.48;;;;;;;;;;4862590;29;20045;-86
2023/07/25 01:02:26;;;;;;;29.20;16.67;;;;;;;;;;4867736;29;20045;-85
2023/07/25 01:05:11;;;;;;;26.30;13.15;;;;;;;;;;4864477;29;20053;-84
2023/07/25 01:07:57;;;;;;;21.80;11.70;;;;;;;;;;4862928;29;20045;-85
2023/07/25 01:10:42;;;;;;;16.88;10.32;;;;;;;;;;4854569;29;20484;-86
2023/07/25 01:13:28;;;;;;;21.30;11.38;;;;;;;;;;4867516;29;20053;-86
2023/07/25 01:16:20;;;;;;;21.60;11.20;;;;;;;;;;4854087;29;20041;-86
2023/07/25 01:19:06;;;;;;;19.80;11.35;;;;;;;;;;4867578;29;20057;-86
2023/07/25 01:21:51;;;;;;;23.00;11.00;;;;;;;;;;4862304;29;20049;-85
2023/07/25 01:24:42;;;;;;;19.75;11.00;;;;;;;;;;4863053;29;20049;-85
2023/07/25 01:27:27;;;;;;;19.33;10.70;;;;;;;;;;4849937;29;20041;-86
2023/07/25 01:30:13;;;;;;;23.38;11.15;;;;;;;;;;4867963;29;20053;-82
2023/07/25 01:32:59;;;;;;;19.45;10.70;;;;;;;;;;4858562;29;20042;-83
2023/07/25 01:35:43;;;;;;;22.88;10.63;;;;;;;;;;4862473;29;20057;-84
2023/07/25 01:38:29;;;;;;;19.17;10.50;;;;;;;;;;4863027;29;20050;-81
2023/07/25 01:41:15;;;;;;;24.45;11.57;;;;;;;;;;4861504;29;20049;-82
2023/07/25 01:44:00;;;;;;;21.75;11.98;;;;;;;;;;4853648;29;20496;-83
2023/07/25 01:46:45;;;;;;;17.40;11.63;;;;;;;;;;4853721;29;20065;-82
2023/07/25 01:49:30;;;;;;;22.33;10.70;;;;;;;;;;4853581;29;20057;-82
2023/07/25 01:52:15;;;;;;;21.02;11.70;;;;;;;;;;4853768;29;20053;-81
2023/07/25 01:55:00;;;;;;;24.33;11.93;;;;;;;;;;4853721;29;20046;-81
2023/07/25 01:57:45;;;;;;;23.02;12.07;;;;;;;;;;4861330;29;20047;-82
2023/07/25 02:00:31;;;;;;;21.35;11.32;;;;;;;;;;4853672;29;20045;-81
2023/07/25 02:03:18;;;;;;;16.45;11.13;;;;;;;;;;4861628;29;20041;-83
2023/07/25 02:06:06;;;;;;;18.35;11.52;;;;;;;;;;4853952;29;20054;-83
2023/07/25 02:08:55;;;;;;;17.10;10.90;;;;;;;;;;4866766;29;20046;-83
2023/07/25 02:11:40;;;;;;;17.75;10.40;;;;;;;;;;4861169;29;20496;-83
2023/07/25 02:14:26;;;;;;;20.23;11.40;;;;;;;;;;4853318;29;20042;-81
2023/07/25 02:17:12;;;;;;;21.77;13.00;;;;;;;;;;4861248;29;20053;-83
2023/07/25 02:20:07;;;;;;;24.63;12.70;;;;;;;;;;4853549;29;20049;-82
2023/07/25 02:22:52;;;;;;;28.35;12.88;;;;;;;;;;4853459;29;20407;-82
2023/07/25 02:25:39;;;;;;;23.55;13.23;;;;;;;;;;4853529;29;20049;-82
2023/07/25 02:28:25;;;;;;;24.67;13.88;;;;;;;;;;4860769;29;20049;-82
2023/07/25 02:31:10;;;;;;;27.17;13.85;;;;;;;;;;4861259;29;20053;-82
2023/07/25 02:33:56;;;;;;;26.40;14.52;;;;;;;;;;4857304;29;20042;-82
2023/07/25 02:36:42;;;;;;;28.02;13.85;;;;;;;;;;4877559;29;20045;-84
2023/07/25 02:39:27;;;;;;;26.13;12.90;;;;;;;;;;4861063;29;20042;-81
2023/07/25 02:42:13;;;;;;;29.15;14.18;;;;;;;;;;4861154;29;20049;-81
2023/07/25 02:44:58;;;;;;;24.15;14.00;;;;;;;;;;4861232;29;20057;-80
2023/07/25 02:47:43;;;;;;;25.35;13.00;;;;;;;;;;4866140;29;20041;-81
2023/07/25 02:50:28;;;;;;;22.40;12.40;;;;;;;;;;4866278;29;20057;-82
2023/07/25 02:53:14;;;;;;;22.95;13.15;;;;;;;;;;4860983;29;20049;-81
2023/07/25 02:56:00;;;;;;;25.90;12.80;;;;;;;;;;4861195;29;20045;-82
2023/07/25 02:58:45;;;;;;;23.15;11.80;;;;;;;;;;4864472;29;20049;-81
2023/07/25 03:01:31;;;;;;;19.85;11.80;;;;;;;;;;4864122;29;20492;-82
2023/07/25 03:04:16;;;;;;;25.58;11.60;;;;;;;;;;4856802;29;20053;-81
2023/07/25 03:07:02;;;;;;;34.15;12.80;;;;;;;;;;4863951;29;20046;-82
2023/07/25 03:09:47;;;;;;;20.00;11.00;;;;;;;;;;4864281;29;20042;-82
2023/07/25 03:12:33;;;;;;;21.10;12.00;;;;;;;;;;4869226;29;20046;-81
2023/07/25 03:15:19;;;;;;;25.33;11.68;;;;;;;;;;4878055;29;20045;-81
2023/07/25 03:18:07;;;;;;;28.35;11.75;;;;;;;;;;4858684;29;20060;-82
2023/07/25 03:20:52;;;;;;;21.00;12.40;;;;;;;;;;4864772;29;20045;-83
2023/07/25 03:23:37;;;;;;;19.77;11.88;;;;;;;;;;4867825;29;20049;-82
2023/07/25 03:26:23;;;;;;;24.15;13.20;;;;;;;;;;4867654;29;20060;-81
2023/07/25 03:29:08;;;;;;;22.52;12.20;;;;;;;;;;4867771;29;20045;-81
2023/07/25 03:31:54;;;;;;;26.77;12.48;;;;;;;;;;4859869;29;20049;-83
2023/07/25 03:34:39;;;;;;;31.77;12.88;;;;;;;;;;4859582;29;20042;-84
2023/07/25 03:37:25;;;;;;;22.35;12.57;;;;;;;;;;4872790;29;20061;-81
2023/07/25 03:40:10;;;;;;;25.52;13.50;;;;;;;;;;4863507;29;20492;-81
2023/07/25 03:42:56;;;;;;;24.55;12.98;;;;;;;;;;4863482;29;20053;-82
2023/07/25 03:45:41;;;;;;;22.35;12.93;;;;;;;;;;4863718;29;20049;-83
2023/07/25 03:48:27;;;;;;;27.35;13.57;;;;;;;;;;4863302;29;20508;-83
2023/07/25 03:51:12;;;;;;;28.33;13.02;;;;;;;;;;4863259;29;20391;-83
2023/07/25 03:53:57;;;;;;;29.80;12.48;;;;;;;;;;4868330;29;20054;-82
2023/07/25 03:56:42;;;;;;;23.77;12.38;;;;;;;;;;4855405;29;20053;-82
2023/07/25 03:59:28;;;;;;;32.08;13.18;;;;;;;;;;4869564;29;20053;-82
2023/07/25 04:02:13;;;;;;;22.58;12.80;;;;;;;;;;4855336;29;20057;-83
2023/07/25 04:04:59;;;;;;;24.40;13.82;;;;;;;;;;4869460;29;20053;-83
2023/07/25 04:07:45;;;;;;;27.48;13.38;;;;;;;;;;4854712;29;20046;-83
2023/07/25 04:10:30;;;;;;;22.52;12.23;;;;;;;;;;4855233;29;20053;-83
2023/07/25 04:13:16;;;;;;;24.00;13.32;;;;;;;;;;4869113;29;20053;-82
2023/07/25 04:16:02;;;;;;;32.10;13.82;;;;;;;;;;4855141;29;20049;-83
2023/07/25 04:18:47;;;;;;;22.02;12.90;;;;;;;;;;4876053;29;20049;-82
2023/07/25 04:21:33;;;;;;;21.58;13.60;;;;;;;;;;4875679;29;20049;-82
2023/07/25 04:24:19;;;;;;;30.00;12.50;;;;;;;;;;4884962;29;20061;-82
2023/07/25 04:27:04;;;;;;;26.95;14.05;;;;;;;;;;4878742;29;20053;-83
2023/07/25 04:29:50;;;;;;;27.55;13.38;;;;;;;;;;4874626;29;20041;-83
2023/07/25 04:32:35;;;;;;;23.92;12.90;;;;;;;;;;4867740;29;20049;-83
2023/07/25 04:35:20;;;;;;;22.95;12.85;;;;;;;;;;4854741;29;20053;-83
2023/07/25 04:38:07;;;;;;;26.25;12.85;;;;;;;;;;4863501;29;20045;-83
2023/07/25 04:40:52;;;;;;;22.17;12.70;;;;;;;;;;4855400;29;20041;-83
2023/07/25 04:43:37;;;;;;;21.70;12.27;;;;;;;;;;4863027;29;20491;-82
2023/07/25 04:46:23;;;;;;;24.77;12.73;;;;;;;;;;4854685;29;20037;-82
2023/07/25 04:49:11;;;;;;;22.15;12.10;;;;;;;;;;4866880;29;20045;-81
2023/07/25 04:51:56;;;;;;;22.15;12.43;;;;;;;;;;4866238;29;20042;-81
2023/07/25 04:54:42;;;;;;;20.90;11.93;;;;;;;;;;4862570;29;20045;-82
2023/07/25 04:57:28;;;;;;;29.08;12.82;;;;;;;;;;4862100;29;20061;-82
2023/07/25 05:00:13;;;;;;;23.55;12.45;;;;;;;;;;4861991;29;20075;-82
2023/07/25 05:02:59;;;;;;;24.23;12.43;;;;;;;;;;4862304;29;20050;-82
2023/07/25 05:05:44;;;;;;;24.17;11.90;;;;;;;;;;4854101;29;20045;-82
2023/07/25 05:08:30;;;;;;;29.40;12.30;;;;;;;;;;4868634;29;20072;-81
2023/07/25 05:11:15;;;;;;;25.27;11.57;;;;;;;;;;4862194;29;20049;-81
2023/07/25 05:14:01;;;;;;;28.77;11.68;;;;;;;;;;4867757;29;20049;-82
2023/07/25 05:16:46;;;;;;;24.98;11.50;;;;;;;;;;4862090;29;20049;-82
2023/07/25 05:19:32;;;;;;;22.20;11.68;;;;;;;;;;4861936;29;20050;-82
2023/07/25 05:22:18;;;;;;;20.20;11.75;;;;;;;;;;4861931;29;20053;-82
2023/07/25 05:25:04;;;;;;;27.90;10.85;;;;;;;;;;4867872;29;20057;-80
2023/07/25 05:27:49;;;;;;;24.77;11.15;;;;;;;;;;4862913;29;20049;-82
2023/07/25 05:30:34;;;;;;;21.95;11.05;;;;;;;;;;4870147;29;20053;-82
2023/07/25 05:33:20;;;;;;;22.23;10.18;;;;;;;;;;4861565;29;20045;-83
2023/07/25 05:36:05;;;;;;;27.67;10.60;;;;;;;;;;4861296;29;20060;-82
2023/07/25 05:38:51;;;;;;;23.75;11.52;;;;;;;;;;4861899;29;20053;-82
2023/07/25 05:41:39;;;;;;;19.48;10.70;;;;;;;;;;4868623;29;20423;-81
2023/07/25 05:44:24;;;;;;;22.90;10.75;;;;;;;;;;4867664;29;20049;-82
2023/07/25 05:47:10;;;;;;;16.48;9.95;;;;;;;;;;4868100;29;20041;-82
2023/07/25 05:49:57;;;;;;;31.75;9.90;;;;;;;;;;4862956;29;20062;-81
2023/07/25 05:52:42;;;;;;;19.20;10.57;;;;;;;;;;4863176;29;20049;-81
2023/07/25 05:55:28;;;;;;;21.83;11.32;;;;;;;;;;4862614;29;20408;-82
2023/07/25 05:58:17;;;;;;;21.85;10.98;;;;;;;;;;4861147;29;20492;-83
2023/07/25 06:01:02;;;;;;;15.68;9.48;;;;;;;;;;4864529;29;20050;-82
2023/07/25 06:03:48;;;;;;;24.33;10.25;;;;;;;;;;4847393;29;20403;-84
2023/07/25 06:06:33;;;;;;;20.00;10.20;;;;;;;;;;4861444;29;20049;-84
2023/07/25 06:09:19;;;;;;;16.85;10.63;;;;;;;;;;4861245;29;20349;-84
2023/07/25 06:12:04;;;;;;;18.38;10.85;;;;;;;;;;4861115;29;20516;-85
2023/07/25 06:14:50;;;;;;;19.98;10.55;;;;;;;;;;4867419;29;20050;-84
2023/07/25 06:17:35;;;;;;;18.27;10.57;;;;;;;;;;4867216;29;20045;-84
2023/07/25 06:20:21;;;;;;;18.67;9.80;;;;;;;;;;4848319;29;20063;-81
2023/07/25 06:23:07;;;;;;;21.35;9.13;;;;;;;;;;4861153;29;20045;-83
2023/07/25 06:25:52;;;;;;;21.35;10.25;;;;;;;;;;4867433;29;20050;-82
2023/07/25 06:28:37;;;;;;;19.85;10.38;;;;;;;;;;4854662;29;20149;-80
2023/07/25 06:31:22;;;;;;;19.08;10.30;;;;;;;;;;4861346;29;20050;-76
2023/07/25 06:34:08;;;;;;;15.63;9.93;;;;;;;;;;4870936;29;20392;-74
2023/07/25 06:36:55;;;;;;;19.10;10.35;;;;;;;;;;4871063;29;20404;-75
2023/07/25 06:39:41;;;;;;;17.73;10.00;;;;;;;;;;4864333;29;20037;-75
2023/07/25 06:42:30;;;;;;;16.65;9.00;;;;;;;;;;4870767;29;20050;-74
2023/07/25 06:45:15;;;;;;;16.88;8.55;;;;;;;;;;4856335;29;20061;-74
2023/07/25 06:48:00;;;;;;;15.98;8.93;;;;;;;;;;4856639;29;20045;-76
2023/07/25 06:50:46;;;;;;;20.20;9.23;;;;;;;;;;4864641;29;20046;-79
2023/07/25 06:53:31;;;;;;;14.27;8.60;;;;;;;;;;4871413;29;20053;-78
2023/07/25 06:56:16;;;;;;;22.17;9.15;;;;;;;;;;4870052;29;20049;-77
2023/07/25 06:59:02;;;;;;;18.98;8.85;;;;;;;;;;4870290;29;20492;-77
2023/07/25 07:01:47;;;;;;;17.58;8.70;;;;;;;;;;4856546;29;20396;-78
2023/07/25 07:04:32;;;;;;;17.88;8.40;;;;;;;;;;4863825;29;20057;-78
2023/07/25 07:07:18;;;;;;;18.55;8.40;;;;;;;;;;4870242;29;20041;-78
2023/07/25 07:10:04;;;;;;;15.43;8.45;;;;;;;;;;4863956;29;20396;-78
2023/07/25 07:12:50;;;;;;;18.20;9.10;;;;;;;;;;4870182;29;20046;-78
2023/07/25 07:15:36;;;;;;;17.83;8.82;;;;;;;;;;4863668;29;20620;-78
2023/07/25 07:18:21;;;;;;;17.42;8.80;;;;;;;;;;4863959;29;20050;-78
2023/07/25 07:21:06;;;;;;;16.90;8.00;;;;;;;;;;4870197;29;20050;-77
2023/07/25 07:23:51;;;;;;;18.08;8.10;;;;;;;;;;4863725;29;20046;-77
2023/07/25 07:26:37;;;;;;;15.05;8.20;;;;;;;;;;4868232;29;20057;-75
2023/07/25 07:29:22;;;;;;;15.98;8.07;;;;;;;;;;4863686;29;20488;-76
2023/07/25 07:32:08;;;;;;;17.27;8.55;;;;;;;;;;4869953;29;20045;-75
2023/07/25 07:34:54;;;;;;;18.75;8.07;;;;;;;;;;4863493;29;20050;-76
2023/07/25 07:37:39;;;;;;;18.52;7.95;;;;;;;;;;4863715;29;20045;-77
2023/07/25 07:40:25;;;;;;;19.95;8.25;;;;;;;;;;4869737;29;20041;-77
2023/07/25 07:43:11;;;;;;;21.65;8.65;;;;;;;;;;4864152;29;20393;-77
2023/07/25 07:45:57;;;;;;;18.58;9.18;;;;;;;;;;4871326;29;20041;-78
2023/07/25 07:48:43;;;;;;;21.40;8.95;;;;;;;;;;4874200;29;20408;-78
2023/07/25 07:51:28;;;;;;;22.58;9.48;;;;;;;;;;4873222;29;20053;-80
2023/07/25 07:54:14;;;;;;;18.92;8.52;;;;;;;;;;4871606;29;20045;-79
2023/07/25 07:56:59;;;;;;;30.20;9.07;;;;;;;;;;4863889;29;20037;-78
2023/07/25 07:59:45;;;;;;;17.00;7.93;;;;;;;;;;4869300;29;20053;-78
2023/07/25 08:02:31;;;;;;;21.67;8.52;;;;;;;;;;4863489;29;20049;-79
2023/07/25 08:05:16;;;;;;;20.98;8.50;;;;;;;;;;4863375;29;20049;-78
2023/07/25 08:08:02;;;;;;;18.20;7.97;;;;;;;;;;4863678;29;20045;-81
2023/07/25 08:10:47;;;;;;;23.13;8.30;;;;;;;;;;4869397;29;20480;-82
2023/07/25 08:13:33;;;;;;;21.92;7.15;;;;;;;;;;4869123;29;20049;-81
2023/07/25 08:16:19;;;;;;;16.98;6.60;;;;;;;;;;4862638;29;20045;-78
2023/07/25 08:19:04;;;;;;;15.43;6.80;;;;;;;;;;4863051;29;20045;-79
2023/07/25 08:21:53;;;;;;;17.27;6.72;;;;;;;;;;4868889;29;20045;-80
2023/07/25 08:24:39;;;;;;;21.60;6.63;;;;;;;;;;4862928;29;20484;-79
2023/07/25 08:27:25;;;;;;;18.27;6.10;;;;;;;;;;4864648;29;20054;-81
2023/07/25 08:30:10;;;;;;;20.25;6.22;;;;;;;;;;4868489;29;20049;-80
2023/07/25 08:32:55;;;;;;;20.17;6.53;;;;;;;;;;4862773;29;20045;-79
2023/07/25 08:35:41;;;;;;;22.05;6.47;;;;;;;;;;4862575;29;20045;-80
2023/07/25 08:38:28;;;;;;;18.70;6.38;;;;;;;;;;4868614;29;20049;-81
2023/07/25 08:41:17;;;;;;;16.85;6.28;;;;;;;;;;4854690;29;20045;-79
2023/07/25 08:44:04;;;;;;;24.30;7.82;;;;;;;;;;4848525;29;20503;-79
2023/07/25 08:46:55;;;;;;;19.25;6.28;;;;;;;;;;4868636;29;20041;-79
2023/07/25 08:49:45;;;;;;;17.23;6.30;;;;;;;;;;4868422;29;20041;-81
2023/07/25 08:52:38;;;;;;;12.18;5.75;;;;;;;;;;4862852;29;20057;-84
2023/07/25 08:55:26;;;;;;;17.05;6.25;;;;;;;;;;4863714;29;20045;-82
2023/07/25 08:58:12;;;;;;;14.60;6.05;;;;;;;;;;4868355;29;20476;-80
2023/07/25 09:00:58;;;;;;;14.25;5.97;;;;;;;;;;4855431;29;20041;-78
2023/07/25 09:03:45;;;;;;;23.27;6.63;;;;;;;;;;4867025;29;20046;-79
2023/07/25 09:06:31;;;;;;;19.17;7.18;;;;;;;;;;4870909;29;20045;-79
2023/07/25 09:09:17;;;;;;;20.77;6.72;;;;;;;;;;4866327;29;20041;-78
2023/07/25 09:12:02;;;;;;;20.10;6.57;;;;;;;;;;4857567;29;20057;-79
2023/07/25 09:14:48;;;;;;;17.35;6.57;;;;;;;;;;4867946;29;20053;-79
2023/07/25 09:17:33;;;;;;;17.52;6.22;;;;;;;;;;4864385;29;20050;-79
2023/07/25 09:20:19;;;;;;;19.58;6.57;;;;;;;;;;4872375;29;20057;-78
2023/07/25 09:23:04;;;;;;;18.58;6.20;;;;;;;;;;4864928;29;20057;-79
2023/07/25 09:26:03;;;;;;;25.02;6.57;;;;;;;;;;4862760;29;20049;-78
2023/07/25 09:28:51;;;;;;;21.98;6.13;;;;;;;;;;4863769;29;20053;-79
2023/07/25 09:31:46;;;;;;;17.77;5.80;;;;;;;;;;4864441;29;20045;-79
2023/07/25 09:34:32;;;;;;;19.35;6.68;;;;;;;;;;4862161;29;20393;-80
2023/07/25 09:37:17;;;;;;;13.40;5.78;;;;;;;;;;4862365;29;20057;-78
2023/07/25 09:40:10;;;;;;;22.73;6.93;;;;;;;;;;4870651;29;20408;-78
2023/07/25 09:42:56;;;;;;;19.23;7.30;;;;;;;;;;4868139;29;20050;-80
2023/07/25 09:45:42;;;;;;;18.42;6.50;;;;;;;;;;4868469;29;20053;-78
2023/07/25 09:48:29;;;;;;;22.60;7.20;;;;;;;;;;4869942;29;20049;-81
2023/07/25 09:51:14;;;;;;;21.98;6.95;;;;;;;;;;4861471;29;20415;-80
2023/07/25 09:54:05;;;;;;;16.08;6.93;;;;;;;;;;4869443;29;20053;-79
2023/07/25 09:56:51;;;;;;;19.73;7.18;;;;;;;;;;4872488;29;20046;-80
2023/07/25 09:59:38;;;;;;;15.45;7.25;;;;;;;;;;4860603;29;20042;-81
2023/07/25 10:02:24;;;;;;;14.68;6.72;;;;;;;;;;4869260;29;20042;-80
2023/07/25 10:05:11;;;;;;;18.17;6.22;;;;;;;;;;4873781;29;20045;-80
2023/07/25 10:07:57;;;;;;;12.52;6.88;;;;;;;;;;4864205;29;20049;-81
2023/07/25 10:10:44;;;;;;;17.42;7.28;;;;;;;;;;4867774;29;20064;-79
2023/07/25 10:13:32;;;;;;;20.25;7.20;;;;;;;;;;4875174;29;20045;-79
2023/07/25 10:16:20;;;;;;;14.80;7.22;;;;;;;;;;4870720;29;20045;-78
2023/07/25 10:19:06;;;;;;;18.30;6.97;;;;;;;;;;4874166;29;20053;-82
2023/07/25 10:21:53;;;;;;;17.33;7.80;;;;;;;;;;4870629;29;20492;-81
2023/07/25 10:24:38;;;;;;;18.75;7.00;;;;;;;;;;4865030;29;20083;-79
2023/07/25 10:27:24;;;;;;;18.88;7.15;;;;;;;;;;4864567;29;20488;-81
2023/07/25 10:30:27;;;;;;;18.02;7.00;;;;;;;;;;4865071;29;20046;-80
2023/07/25 10:33:16;;;;;;;18.58;7.38;;;;;;;;;;4858680;29;20049;-82
2023/07/25 10:36:01;;;;;;;15.73;6.55;;;;;;;;;;4860573;29;20049;-81
2023/07/25 10:38:48;;;;;;;19.63;6.80;;;;;;;;;;4867746;29;20049;-78
2023/07/25 10:41:34;;;;;;;18.75;7.00;;;;;;;;;;4871217;29;20496;-81
2023/07/25 10:44:36;;;;;;;21.58;6.70;;;;;;;;;;4864851;29;20049;-81
2023/07/25 10:47:43;;;;;;;19.73;7.03;;;;;;;;;;4858151;29;20058;-77
2023/07/25 10:50:51;;;;;;;19.35;7.07;;;;;;;;;;4866305;29;20065;-81
2023/07/25 10:53:37;;;;;;;21.20;6.90;;;;;;;;;;4864376;29;20053;-81
2023/07/25 10:56:22;;;;;;;18.88;6.95;;;;;;;;;;4858423;29;20045;-79
2023/07/25 10:59:10;;;;;;;16.55;6.65;;;;;;;;;;4872071;29;20049;-81
2023/07/25 11:01:56;;;;;;;15.45;6.75;;;;;;;;;;4864224;29;20041;-80
2023/07/25 11:04:42;;;;;;;20.48;7.65;;;;;;;;;;4877606;29;20046;-79
2023/07/25 11:07:28;;;;;;;14.77;6.68;;;;;;;;;;4868070;29;20057;-80
2023/07/25 11:10:20;;;;;;;27.15;7.60;;;;;;;;;;4864057;29;20054;-80
2023/07/25 11:13:08;;;;;;;18.63;7.88;;;;;;;;;;4866539;29;20396;-79
2023/07/25 11:15:55;;;;;;;20.27;6.88;;;;;;;;;;4866827;29;20042;-82
2023/07/25 11:18:50;;;;;;;25.05;7.72;;;;;;;;;;4869517;29;20476;-79
2023/07/25 11:21:45;;;;;;;21.75;7.40;;;;;;;;;;4870671;29;20045;-81
2023/07/25 11:24:39;;;;;;;22.35;7.10;;;;;;;;;;4858507;29;20491;-79
2023/07/25 11:27:26;;;;;;;23.90;8.05;;;;;;;;;;4865766;29;20053;-80
2023/07/25 11:30:17;;;;;;;18.58;8.13;;;;;;;;;;4866403;29;20045;-78
2023/07/25 11:33:02;;;;;;;24.65;8.05;;;;;;;;;;4864095;29;20057;-81
2023/07/25 11:35:52;;;;;;;25.88;8.30;;;;;;;;;;4867844;29;20053;-81
2023/07/25 11:38:37;;;;;;;19.75;7.32;;;;;;;;;;4869296;29;20041;-81
2023/07/25 11:41:23;;;;;;;19.00;7.18;;;;;;;;;;4864239;29;20050;-80
2023/07/25 11:44:13;;;;;;;24.40;7.80;;;;;;;;;;4863999;29;20061;-79
2023/07/25 11:46:59;;;;;;;18.42;7.57;;;;;;;;;;4863677;29;20058;-82
2023/07/25 11:49:45;;;;;;;20.92;7.15;;;;;;;;;;4864550;29;20052;-79
2023/07/25 11:52:31;;;;;;;17.02;7.05;;;;;;;;;;4870829;29;20050;-79
2023/07/25 11:55:17;;;;;;;17.33;6.88;;;;;;;;;;4864558;29;20045;-81
2023/07/25 11:58:03;;;;;;;21.08;7.20;;;;;;;;;;4869683;29;20057;-82
2023/07/25 12:00:54;;;;;;;17.75;7.20;;;;;;;;;;4871770;29;20419;-80
2023/07/25 12:03:47;;;;;;;22.08;7.70;;;;;;;;;;4877624;29;20045;-80
2023/07/25 12:06:33;;;;;;;22.70;7.82;;;;;;;;;;4879974;29;20057;-79
2023/07/25 12:09:28;;;;;;;19.25;6.32;;;;;;;;;;4865945;29;20045;-81
2023/07/25 12:12:13;;;;;;;23.65;7.97;;;;;;;;;;4863601;29;20049;-79
2023/07/25 12:15:01;;;;;;;19.92;7.28;;;;;;;;;;4863897;29;20053;-79
2023/07/25 12:17:46;;;;;;;24.33;7.32;;;;;;;;;;4862785;29;20054;-81
2023/07/25 12:20:39;;;;;;;21.45;6.97;;;;;;;;;;4863406;29;20050;-80
2023/07/25 12:23:37;;;;;;;23.95;7.28;;;;;;;;;;4870564;29;20384;-79
2023/07/25 12:26:23;;;;;;;22.05;6.75;;;;;;;;;;4836731;29;20049;-82
2023/07/25 12:29:16;;;;;;;21.20;8.05;;;;;;;;;;4868154;29;20057;-80
2023/07/25 12:32:02;;;;;;;23.42;6.95;;;;;;;;;;4862576;29;20049;-79
2023/07/25 12:34:48;;;;;;;23.75;7.90;;;;;;;;;;4862710;29;20037;-82
2023/07/25 12:37:35;;;;;;;24.67;7.40;;;;;;;;;;4868574;29;20045;-80
2023/07/25 12:40:22;;;;;;;27.90;7.90;;;;;;;;;;4865024;29;20045;-80
2023/07/25 12:43:08;;;;;;;27.73;7.53;;;;;;;;;;4868957;29;20053;-80
2023/07/25 12:45:53;;;;;;;23.88;7.28;;;;;;;;;;4862657;29;20049;-82
2023/07/25 12:48:39;;;;;;;26.63;6.75;;;;;;;;;;4868884;29;20053;-80
2023/07/25 12:51:24;;;;;;;27.73;7.53;;;;;;;;;;4869077;29;20420;-80
2023/07/25 12:54:11;;;;;;;20.27;6.95;;;;;;;;;;4869808;29;20045;-78
2023/07/25 12:56:56;;;;;;;28.52;7.93;;;;;;;;;;4863014;29;20485;-79
2023/07/25 12:59:42;;;;;;;25.58;8.13;;;;;;;;;;4868998;29;20053;-79
2023/07/25 13:02:29;;;;;;;20.83;7.18;;;;;;;;;;4862650;29;20481;-82
2023/07/25 13:05:14;;;;;;;24.48;7.47;;;;;;;;;;4862762;29;20388;-82
2023/07/25 13:08:00;;;;;;;18.17;7.47;;;;;;;;;;4862746;29;20046;-82
2023/07/25 13:10:46;;;;;;;20.23;7.35;;;;;;;;;;4854422;29;20045;-82
2023/07/25 13:13:33;;;;;;;26.25;7.15;;;;;;;;;;4863651;29;20049;-81
2023/07/25 13:16:18;;;;;;;22.65;7.80;;;;;;;;;;4869351;29;20046;-82
2023/07/25 13:19:04;;;;;;;26.63;7.05;;;;;;;;;;4863247;29;20037;-81
2023/07/25 13:21:51;;;;;;;25.38;7.05;;;;;;;;;;4864569;29;20046;-80
2023/07/25 13:24:36;;;;;;;23.38;7.05;;;;;;;;;;4868746;29;20049;-81
2023/07/25 13:27:26;;;;;;;21.90;6.53;;;;;;;;;;4861706;29;20407;-81
2023/07/25 13:30:12;;;;;;;25.88;6.97;;;;;;;;;;4882309;29;20057;-80
2023/07/25 13:32:57;;;;;;;23.15;7.22;;;;;;;;;;4887094;29;20053;-79
2023/07/25 13:35:42;;;;;;;21.70;6.78;;;;;;;;;;4892824;29;20053;-80
2023/07/25 13:38:28;;;;;;;24.85;7.53;;;;;;;;;;4891625;29;20040;-80
2023/07/25 13:41:14;;;;;;;19.38;7.07;;;;;;;;;;4886389;29;20044;-79
2023/07/25 13:43:59;;;;;;;25.90;9.70;;;;;;;;;;4886472;29;20049;-79
2023/07/25 13:46:46;;;;;;;29.08;9.20;;;;;;;;;;4887136;29;20491;-78
2023/07/25 13:49:31;;;;;;;27.83;10.35;;;;;;;;;;4886100;29;20399;-79
2023/07/25 13:52:17;;;;;;;17.77;8.23;;;;;;;;;;4888498;29;20057;-79
2023/07/25 13:55:03;;;;;;;21.85;8.23;;;;;;;;;;4895594;29;20391;-79
2023/07/25 13:57:49;;;;;;;29.85;7.95;;;;;;;;;;4885029;29;20041;-79
2023/07/25 14:00:35;;;;;;;26.63;7.82;;;;;;;;;;4891577;29;20041;-80
2023/07/25 14:03:20;;;;;;;21.67;7.68;;;;;;;;;;4883824;29;20044;-80
2023/07/25 14:06:06;;;;;;;25.15;7.55;;;;;;;;;;4880756;29;20053;-80
2023/07/25 14:08:53;;;;;;;22.90;7.38;;;;;;;;;;4890533;29;20041;-80
2023/07/25 14:11:38;;;;;;;28.95;7.32;;;;;;;;;;4890786;29;20225;-80
2023/07/25 14:14:24;;;;;;;23.20;7.50;;;;;;;;;;4880974;29;20488;-78
2023/07/25 14:17:09;;;;;;;30.15;7.57;;;;;;;;;;4894768;29;20483;-79
2023/07/25 14:19:55;;;;;;;23.88;7.57;;;;;;;;;;4904623;29;20400;-79
2023/07/25 14:22:41;;;;;;;19.98;7.90;;;;;;;;;;4885756;29;20045;-78
2023/07/25 14:25:27;;;;;;;19.92;6.90;;;;;;;;;;4897872;29;20050;-79
2023/07/25 14:28:13;;;;;;;25.02;8.00;;;;;;;;;;4864785;29;20049;-79
2023/07/25 14:30:58;;;;;;;25.55;7.95;;;;;;;;;;4862597;29;20500;-81
2023/07/25 14:33:44;;;;;;;18.88;7.03;;;;;;;;;;4861390;29;20045;-81
2023/07/25 14:36:29;;;;;;;26.25;8.07;;;;;;;;;;4861183;29;20492;-80
2023/07/25 14:39:15;;;;;;;20.75;7.40;;;;;;;;;;4868002;29;20384;-81
2023/07/25 14:42:01;;;;;;;30.27;8.30;;;;;;;;;;4869469;29;20053;-80
2023/07/25 14:44:46;;;;;;;27.17;8.90;;;;;;;;;;4867649;29;20046;-81
2023/07/25 14:47:33;;;;;;;29.88;8.13;;;;;;;;;;4860789;29;20053;-81
2023/07/25 14:50:18;;;;;;;19.15;7.43;;;;;;;;;;4861198;29;20046;-81
2023/07/25 14:53:04;;;;;;;19.38;7.90;;;;;;;;;;4868589;29;20480;-80
2023/07/25 14:55:49;;;;;;;23.08;7.18;;;;;;;;;;4864466;29;20065;-80
2023/07/25 14:58:35;;;;;;;21.77;7.55;;;;;;;;;;4864402;29;20045;-80
2023/07/25 15:01:20;;;;;;;21.48;7.55;;;;;;;;;;4864105;29;20403;-80
2023/07/25 15:04:06;;;;;;;22.83;7.55;;;;;;;;;;4870705;29;20049;-79
2023/07/25 15:06:53;;;;;;;22.67;7.53;;;;;;;;;;4850433;29;20058;-79
2023/07/25 15:09:38;;;;;;;25.67;7.78;;;;;;;;;;4865243;29;20050;-79
2023/07/25 15:12:25;;;;;;;19.52;6.75;;;;;;;;;;4870616;29;20042;-80
2023/07/25 15:15:10;;;;;;;21.67;7.63;;;;;;;;;;4863822;29;20049;-80
2023/07/25 15:17:57;;;;;;;29.85;8.32;;;;;;;;;;4870024;29;20053;-81
2023/07/25 15:20:43;;;;;;;22.58;7.38;;;;;;;;;;4863802;29;20046;-81
2023/07/25 15:23:28;;;;;;;24.88;7.85;;;;;;;;;;4850524;29;20045;-80
2023/07/25 15:26:14;;;;;;;16.25;7.63;;;;;;;;;;4864485;29;20053;-80
2023/07/25 15:29:00;;;;;;;23.25;7.63;;;;;;;;;;4882514;29;20049;-80
2023/07/25 15:31:47;;;;;;;22.10;7.72;;;;;;;;;;4888230;29;20052;-79
2023/07/25 15:34:33;;;;;;;17.90;7.25;;;;;;;;;;4888108;29;20061;-83
2023/07/25 15:37:18;;;;;;;21.05;7.00;;;;;;;;;;4882100;29;20045;-83
2023/07/25 15:40:07;;;;;;;23.80;7.30;;;;;;;;;;4894410;29;20048;-82
2023/07/25 15:42:52;;;;;;;20.35;7.32;;;;;;;;;;4882248;29;20049;-82
2023/07/25 15:45:38;;;;;;;27.00;7.32;;;;;;;;;;4882058;29;20045;-82
2023/07/25 15:48:24;;;;;;;24.52;7.78;;;;;;;;;;4882212;29;20045;-84
2023/07/25 15:51:09;;;;;;;27.02;7.55;;;;;;;;;;4882980;29;20049;-83
2023/07/25 15:53:55;;;;;;;29.23;7.38;;;;;;;;;;4883982;29;20041;-82
2023/07/25 15:56:41;;;;;;;28.58;7.75;;;;;;;;;;4886053;29;20483;-82
2023/07/25 15:59:27;;;;;;;18.75;6.50;;;;;;;;;;4900286;29;20045;-83
2023/07/25 16:02:13;;;;;;;20.88;7.20;;;;;;;;;;4894508;29;20057;-82
2023/07/25 16:04:59;;;;;;;29.98;7.25;;;;;;;;;;4881355;29;20061;-83
2023/07/25 16:07:44;;;;;;;21.50;7.28;;;;;;;;;;4888561;29;20048;-83
2023/07/25 16:10:31;;;;;;;20.45;7.40;;;;;;;;;;4898339;29;20041;-81
2023/07/25 16:13:17;;;;;;;19.55;7.70;;;;;;;;;;4884416;29;20049;-83
2023/07/25 16:16:02;;;;;;;29.50;9.30;;;;;;;;;;4882290;29;20049;-83